createdAt,value
2023-04-18T00:01:30.520Z,30.35
2023-04-18T00:03:58.029Z,7.65
2023-04-18T00:06:25.915Z,8.18
2023-04-18T00:08:52.514Z,7.60
2023-04-18T00:11:19.016Z,8.57
2023-04-18T00:13:47.329Z,7.25
2023-04-18T00:16:13.925Z,6.72
2023-04-18T00:18:40.686Z,8.10
2023-04-18T00:21:08.605Z,7.75
2023-04-18T00:26:02.127Z,7.35
2023-04-18T00:28:28.624Z,7.78
2023-04-18T00:30:55.158Z,7.70
2023-04-18T00:33:21.707Z,6.55
2023-04-18T00:35:51.572Z,8.02
2023-04-18T00:38:18.171Z,7.57
2023-04-18T00:40:44.676Z,7.97
2023-04-18T00:43:13.660Z,7.88
2023-04-18T00:45:40.771Z,6.57
2023-04-18T00:48:07.463Z,7.18
2023-04-18T00:50:34.088Z,7.95
2023-04-18T00:53:01.492Z,7.45
2023-04-18T00:55:28.899Z,7.38
2023-04-18T00:57:56.112Z,8.13
2023-04-18T01:00:24.526Z,7.72
2023-04-18T01:02:53.294Z,7.68
2023-04-18T01:05:21.339Z,7.68
2023-04-18T01:07:48.237Z,6.97
2023-04-18T01:10:14.736Z,7.60
2023-04-18T01:12:41.771Z,6.97
2023-04-18T01:15:09.166Z,6.55
2023-04-18T01:17:36.465Z,7.15
2023-04-18T01:20:06.307Z,7.32
2023-04-18T01:22:33.167Z,6.40
2023-04-18T01:24:59.714Z,8.02
2023-04-18T01:27:26.258Z,7.65
2023-04-18T01:29:52.813Z,7.13
2023-04-18T01:32:20.539Z,7.55
2023-04-18T01:34:47.576Z,6.88
2023-04-18T01:37:14.168Z,7.95
2023-04-18T01:39:40.761Z,7.85
2023-04-18T01:42:07.278Z,7.75
2023-04-18T01:44:33.795Z,7.25
2023-04-18T01:47:00.492Z,7.40
2023-04-18T01:49:27.035Z,6.97
2023-04-18T01:51:53.512Z,7.05
2023-04-18T01:54:21.280Z,7.10
2023-04-18T01:56:47.831Z,7.18
2023-04-18T01:59:14.340Z,7.80
2023-04-18T02:01:40.905Z,7.75
2023-04-18T02:04:08.015Z,6.95
2023-04-18T02:06:34.602Z,7.10
2023-04-18T02:09:01.191Z,7.05
2023-04-18T02:11:27.812Z,7.63
2023-04-18T02:13:54.766Z,7.40
2023-04-18T02:16:21.752Z,7.53
2023-04-18T02:18:49.593Z,7.38
2023-04-18T02:21:16.223Z,7.40
2023-04-18T02:23:42.720Z,8.15
2023-04-18T02:26:09.292Z,7.05
2023-04-18T02:28:38.859Z,8.00
2023-04-18T02:31:06.217Z,8.07
2023-04-18T02:33:34.087Z,7.50
2023-04-18T02:36:01.655Z,11.82
2023-04-18T02:38:28.492Z,7.93
2023-04-18T02:40:54.992Z,7.32
2023-04-18T02:43:21.972Z,7.18
2023-04-18T02:45:48.518Z,7.95
2023-04-18T02:48:15.193Z,7.78
2023-04-18T02:50:41.781Z,7.68
2023-04-18T02:53:08.302Z,6.82
2023-04-18T02:55:49.025Z,7.28
2023-04-18T02:58:16.280Z,7.43
2023-04-18T03:01:00.310Z,7.60
2023-04-18T03:03:53.584Z,8.07
2023-04-18T03:06:42.696Z,7.25
2023-04-18T03:09:09.615Z,6.93
2023-04-18T03:11:41.042Z,8.15
2023-04-18T03:14:08.163Z,7.50
2023-04-18T03:16:42.199Z,7.30
2023-04-18T03:19:12.221Z,7.50
2023-04-18T03:21:38.883Z,8.23
2023-04-18T03:24:05.805Z,7.85
2023-04-18T03:26:34.239Z,8.00
2023-04-18T03:29:02.790Z,8.35
2023-04-18T03:31:29.334Z,8.25
2023-04-18T03:33:56.625Z,7.78
2023-04-18T03:36:25.406Z,7.75
2023-04-18T03:38:54.148Z,7.82
2023-04-18T03:41:20.636Z,8.20
2023-04-18T03:43:47.156Z,7.90
2023-04-18T03:46:13.747Z,7.32
2023-04-18T03:48:40.424Z,7.60
2023-04-18T03:51:10.306Z,7.93
2023-04-18T03:56:04.900Z,6.53
2023-04-18T03:58:49.754Z,7.65
2023-04-18T04:01:18.130Z,7.63
2023-04-18T04:03:44.757Z,7.57
2023-04-18T04:06:11.537Z,6.72
2023-04-18T04:08:38.477Z,8.32
2023-04-18T04:11:05.179Z,8.18
2023-04-18T04:13:32.973Z,7.43
2023-04-18T04:15:59.609Z,8.48
2023-04-18T04:18:30.991Z,7.70
2023-04-18T04:21:00.413Z,8.20
2023-04-18T04:23:42.069Z,7.72
2023-04-18T04:26:10.719Z,7.78
2023-04-18T04:28:46.473Z,7.97
2023-04-18T04:31:16.409Z,7.78
2023-04-18T04:33:43.648Z,7.18
2023-04-18T04:36:18.593Z,7.90
2023-04-18T04:38:47.279Z,8.13
2023-04-18T04:41:14.001Z,7.70
2023-04-18T04:43:41.234Z,7.25
2023-04-18T04:46:08.984Z,7.28
2023-04-18T04:48:35.552Z,7.82
2023-04-18T04:53:30.531Z,8.02
2023-04-18T04:55:58.443Z,7.53
2023-04-18T04:58:25.197Z,7.43
2023-04-18T05:01:12.958Z,8.10
2023-04-18T05:03:40.672Z,7.35
2023-04-18T05:06:07.391Z,8.10
2023-04-18T05:08:34.650Z,8.15
2023-04-18T05:11:01.939Z,7.50
2023-04-18T05:13:28.409Z,7.60
2023-04-18T05:15:55.600Z,7.63
2023-04-18T05:18:22.125Z,7.57
2023-04-18T05:20:49.324Z,7.25
2023-04-18T05:23:16.227Z,7.35
2023-04-18T05:25:42.716Z,8.05
2023-04-18T05:28:09.585Z,7.75
2023-04-18T05:30:36.189Z,8.00
2023-04-18T05:33:02.772Z,7.65
2023-04-18T05:35:29.241Z,7.00
2023-04-18T05:37:55.779Z,7.82
2023-04-18T05:40:22.693Z,8.13
2023-04-18T05:42:49.214Z,7.50
2023-04-18T05:45:15.792Z,7.80
2023-04-18T05:47:42.340Z,7.45
2023-04-18T05:50:09.140Z,7.20
2023-04-18T05:52:37.149Z,7.35
2023-04-18T05:57:30.205Z,8.38
2023-04-18T05:59:56.850Z,7.65
2023-04-18T06:02:23.642Z,7.65
2023-04-18T06:04:50.386Z,8.73
2023-04-18T06:07:17.213Z,8.35
2023-04-18T06:09:43.711Z,8.15
2023-04-18T06:12:10.809Z,7.88
2023-04-18T06:14:37.410Z,7.15
2023-04-18T06:17:03.932Z,7.80
2023-04-18T06:19:30.458Z,7.97
2023-04-18T06:21:56.956Z,6.70
2023-04-18T06:24:23.791Z,7.50
2023-04-18T06:26:50.345Z,8.88
2023-04-18T06:29:18.099Z,8.20
2023-04-18T06:31:46.588Z,9.15
2023-04-18T06:34:13.808Z,7.63
2023-04-18T06:36:40.526Z,7.82
2023-04-18T06:39:06.989Z,6.82
2023-04-18T06:41:33.523Z,8.23
2023-04-18T06:44:04.076Z,8.50
2023-04-18T06:46:32.106Z,8.65
2023-04-18T06:48:58.803Z,7.30
2023-04-18T06:51:25.270Z,7.95
2023-04-18T06:53:53.718Z,7.88
2023-04-18T06:56:20.773Z,6.88
2023-04-18T06:58:47.861Z,7.25
2023-04-18T07:01:14.460Z,7.80
2023-04-18T07:03:41.069Z,7.60
2023-04-18T07:06:08.893Z,7.10
2023-04-18T07:08:35.746Z,7.05
2023-04-18T07:11:02.360Z,7.05
2023-04-18T07:13:28.970Z,7.60
2023-04-18T07:15:55.560Z,7.50
2023-04-18T07:18:34.288Z,8.00
2023-04-18T07:21:43.265Z,8.10
2023-04-18T07:23:53.660Z,7.22
2023-04-18T07:26:20.495Z,8.30
2023-04-18T07:28:47.015Z,7.55
2023-04-18T07:31:14.415Z,7.18
2023-04-18T07:33:41.089Z,7.80
2023-04-18T07:36:07.703Z,7.45
2023-04-18T07:38:37.380Z,7.70
2023-04-18T07:41:03.964Z,7.13
2023-04-18T07:43:30.601Z,7.78
2023-04-18T07:45:57.174Z,8.30
2023-04-18T07:48:25.156Z,7.50
2023-04-18T07:53:18.067Z,6.50
2023-04-18T07:55:45.290Z,6.90
2023-04-18T07:58:11.928Z,7.78
2023-04-18T08:00:39.211Z,7.47
2023-04-18T08:03:07.502Z,8.02
2023-04-18T08:05:34.917Z,7.35
2023-04-18T08:08:01.560Z,7.30
2023-04-18T08:10:28.184Z,7.38
2023-04-18T08:12:54.734Z,7.45
2023-04-18T08:15:21.277Z,7.18
2023-04-18T08:17:49.096Z,7.45
2023-04-18T08:22:57.649Z,6.55
2023-04-18T08:25:31.568Z,7.53
2023-04-18T08:27:58.103Z,7.30
2023-04-18T08:30:24.626Z,6.95
2023-04-18T08:32:51.572Z,7.43
2023-04-18T08:35:18.568Z,8.50
2023-04-18T08:37:45.091Z,7.70
2023-04-18T08:40:11.854Z,7.47
2023-04-18T08:42:38.750Z,7.50
2023-04-18T08:45:09.450Z,8.23
2023-04-18T08:47:35.966Z,7.38
2023-04-18T08:50:02.566Z,7.45
2023-04-18T08:52:30.996Z,7.80
2023-04-18T08:54:57.557Z,7.38
2023-04-18T08:57:27.346Z,8.05
2023-04-18T08:59:54.485Z,7.28
2023-04-18T09:02:24.200Z,8.23
2023-04-18T09:04:53.520Z,7.30
2023-04-18T09:07:28.416Z,28.80
2023-04-18T09:09:59.826Z,57.60
2023-04-18T09:12:27.997Z,43.58
2023-04-18T09:14:59.585Z,17.17
2023-04-18T09:17:33.037Z,25.02
2023-04-18T09:20:01.081Z,39.53
2023-04-18T09:23:01.088Z,46.17
2023-04-18T09:25:34.873Z,88.13
2023-04-18T09:28:02.800Z,18.35
2023-04-18T09:30:37.869Z,23.58
2023-04-18T09:33:09.677Z,12.25
2023-04-18T09:35:37.659Z,14.38
2023-04-18T09:38:05.239Z,17.80
2023-04-18T09:40:32.485Z,8.20
2023-04-18T09:42:59.320Z,6.35
2023-04-18T09:45:26.514Z,112.97
2023-04-18T09:47:53.561Z,320.30
2023-04-18T09:50:20.814Z,392.13
2023-04-18T09:52:48.503Z,365.40
2023-04-18T09:55:17.503Z,400.17
2023-04-18T09:57:48.100Z,335.38
2023-04-18T10:00:26.355Z,383.73
2023-04-18T10:10:15.796Z,88.38
2023-04-18T10:12:42.380Z,373.20
2023-04-18T10:15:10.004Z,127.55
2023-04-18T10:17:52.582Z,123.00
2023-04-18T10:20:29.147Z,410.60
2023-04-18T10:22:57.142Z,493.50
2023-04-18T10:25:38.870Z,517.80
2023-04-18T10:28:06.683Z,407.37
2023-04-18T10:30:42.245Z,81.15
2023-04-18T10:33:37.159Z,97.63
2023-04-18T10:36:09.074Z,80.90
2023-04-18T10:38:38.618Z,273.57
2023-04-18T10:41:28.450Z,5.65
2023-04-18T10:44:09.980Z,6.00
2023-04-18T10:46:39.991Z,5.90
2023-04-18T10:49:14.141Z,5.57
2023-04-18T10:51:41.150Z,5.55
2023-04-18T10:54:09.766Z,5.93
2023-04-18T10:56:36.604Z,5.60
2023-04-18T10:59:03.640Z,5.95
2023-04-18T11:01:32.893Z,5.78
2023-04-18T11:04:00.183Z,5.05
2023-04-18T11:06:27.648Z,5.10
2023-04-18T11:09:11.600Z,4.72
2023-04-18T11:11:38.155Z,4.93
2023-04-18T11:14:04.646Z,5.00
2023-04-18T11:16:32.952Z,4.43
2023-04-18T11:18:59.930Z,4.68
2023-04-18T11:21:30.419Z,4.43
2023-04-18T11:23:58.047Z,4.88
2023-04-18T11:26:29.017Z,5.32
2023-04-18T11:28:58.511Z,5.28
2023-04-18T11:31:26.147Z,4.90
2023-04-18T11:33:56.139Z,4.85
2023-04-18T11:36:22.714Z,6.40
2023-04-18T11:38:49.165Z,5.78
2023-04-18T11:41:16.032Z,6.35
2023-04-18T11:43:46.480Z,5.65
2023-04-18T11:46:13.818Z,4.93
2023-04-18T11:48:42.216Z,5.72
2023-04-18T11:51:32.273Z,5.88
2023-04-18T11:53:58.818Z,5.50
2023-04-18T11:56:25.414Z,5.32
2023-04-18T11:58:52.005Z,5.38
2023-04-18T12:01:20.493Z,5.03
2023-04-18T12:04:03.767Z,5.38
2023-04-18T12:06:52.119Z,6.03
2023-04-18T12:09:19.414Z,4.97
2023-04-18T12:11:58.078Z,5.57
2023-04-18T12:14:24.616Z,5.70
2023-04-18T12:16:52.049Z,5.57
2023-04-18T12:19:20.780Z,4.85
2023-04-18T12:22:01.578Z,4.35
2023-04-18T12:24:29.874Z,4.57
2023-04-18T12:26:58.082Z,4.20
2023-04-18T12:29:25.612Z,3.30
2023-04-18T12:31:52.230Z,3.30
2023-04-18T12:34:18.836Z,4.07
2023-04-18T12:36:45.988Z,3.45
2023-04-18T12:39:12.698Z,3.33
2023-04-18T12:41:39.563Z,3.25
2023-04-18T12:44:06.697Z,3.05
2023-04-18T12:46:33.347Z,3.35
2023-04-18T12:49:00.288Z,3.00
2023-04-18T12:51:29.043Z,2.95
2023-04-18T12:53:56.335Z,3.22
2023-04-18T12:56:22.822Z,3.33
2023-04-18T12:58:49.349Z,3.00
2023-04-18T13:01:16.495Z,3.20
2023-04-18T13:03:43.265Z,2.83
2023-04-18T13:06:09.836Z,3.28
2023-04-18T13:08:37.470Z,2.58
2023-04-18T13:11:04.623Z,2.90
2023-04-18T13:13:31.082Z,2.78
2023-04-18T13:15:57.577Z,3.00
2023-04-18T13:18:24.437Z,2.80
2023-04-18T13:20:51.537Z,3.35
2023-04-18T13:23:18.053Z,2.70
2023-04-18T13:25:44.964Z,3.28
2023-04-18T13:28:11.487Z,4.45
2023-04-18T13:30:38.020Z,212.80
2023-04-18T13:33:04.591Z,294.85
2023-04-18T13:35:31.240Z,71.10
2023-04-18T13:37:57.785Z,41.63
2023-04-18T13:40:25.098Z,423.10
2023-04-18T13:42:51.575Z,98.23
2023-04-18T13:45:18.714Z,117.25
2023-04-18T13:47:45.248Z,75.80
2023-04-18T13:50:11.873Z,60.85
2023-04-18T13:52:38.416Z,60.40
2023-04-18T13:55:05.384Z,73.35
2023-04-18T13:57:33.680Z,76.87
2023-04-18T14:00:00.346Z,114.70
2023-04-18T14:02:27.000Z,66.10
2023-04-18T14:04:54.852Z,93.20
2023-04-18T14:07:21.554Z,77.95
2023-04-18T14:09:48.184Z,70.97
2023-04-18T14:12:14.722Z,84.82
2023-04-18T14:14:41.826Z,69.00
2023-04-18T14:17:08.346Z,71.88
2023-04-18T14:19:35.040Z,66.45
2023-04-18T14:22:01.577Z,62.70
2023-04-18T14:24:28.157Z,63.70
2023-04-18T14:26:54.833Z,64.55
2023-04-18T14:29:21.390Z,64.55
2023-04-18T14:31:48.116Z,73.63
2023-04-18T14:34:14.887Z,68.10
2023-04-18T14:36:41.477Z,66.70
2023-04-18T14:39:08.352Z,103.60
2023-04-18T14:41:34.923Z,99.70
2023-04-18T14:44:02.164Z,76.32
2023-04-18T14:46:29.230Z,93.78
2023-04-18T14:48:56.872Z,110.80
2023-04-18T14:51:23.664Z,125.93
2023-04-18T14:53:50.252Z,122.95
2023-04-18T14:56:20.899Z,114.15
2023-04-18T14:58:47.595Z,125.47
2023-04-18T15:01:14.350Z,114.28
2023-04-18T15:03:41.000Z,123.50
2023-04-18T15:06:07.794Z,125.03
2023-04-18T15:08:34.398Z,123.55
2023-04-18T15:11:01.353Z,123.65
2023-04-18T15:13:28.003Z,116.15
2023-04-18T15:15:57.113Z,124.65
2023-04-18T15:18:23.638Z,96.22
2023-04-18T15:20:51.715Z,130.10
2023-04-18T15:25:45.316Z,129.93
2023-04-18T15:28:15.993Z,126.57
2023-04-18T15:30:42.553Z,126.50
2023-04-18T15:35:35.843Z,133.37
2023-04-18T15:38:02.390Z,133.88
2023-04-18T15:40:28.975Z,128.57
2023-04-18T15:42:57.840Z,127.80
2023-04-18T15:45:24.408Z,127.25
2023-04-18T15:47:51.544Z,133.60
2023-04-18T15:50:18.175Z,127.80
2023-04-18T15:52:44.655Z,126.10
2023-04-18T15:55:13.053Z,125.70
2023-04-18T15:57:40.279Z,124.72
2023-04-18T16:00:11.835Z,128.48
2023-04-18T16:02:38.582Z,125.15
2023-04-18T16:05:05.575Z,126.43
2023-04-18T16:07:32.176Z,118.00
2023-04-18T16:09:58.826Z,116.68
2023-04-18T16:12:25.409Z,116.93
2023-04-18T16:14:51.908Z,127.10
2023-04-18T16:17:18.438Z,129.87
2023-04-18T16:19:44.962Z,128.57
2023-04-18T16:22:12.364Z,129.80
2023-04-18T16:24:40.855Z,106.97
2023-04-18T16:27:08.590Z,96.05
2023-04-18T16:29:35.390Z,123.38
2023-04-18T16:32:01.913Z,96.68
2023-04-18T16:34:28.434Z,119.45
2023-04-18T16:36:55.734Z,119.18
2023-04-18T16:39:22.339Z,108.65
2023-04-18T16:41:48.876Z,113.72
2023-04-18T16:44:15.640Z,106.03
2023-04-18T16:46:42.481Z,127.93
2023-04-18T16:49:09.027Z,111.63
2023-04-18T16:51:37.149Z,76.88
2023-04-18T16:54:04.379Z,71.32
2023-04-18T16:58:58.059Z,82.90
2023-04-18T17:01:24.628Z,84.57
2023-04-18T17:03:51.487Z,116.80
2023-04-18T17:06:19.374Z,92.90
2023-04-18T17:11:12.487Z,96.20
2023-04-18T17:13:38.968Z,94.90
2023-04-18T17:16:06.820Z,94.53
2023-04-18T17:21:00.021Z,116.68
2023-04-18T17:23:26.748Z,82.80
2023-04-18T17:25:53.299Z,86.97
2023-04-18T17:28:21.209Z,90.20
2023-04-18T17:30:47.777Z,110.60
2023-04-18T17:33:14.537Z,94.57
2023-04-18T17:35:44.063Z,97.90
2023-04-18T17:38:10.798Z,116.82
2023-04-18T17:40:37.346Z,87.00
2023-04-18T17:43:03.820Z,85.50
2023-04-18T17:45:30.540Z,90.93
2023-04-18T17:47:58.196Z,91.38
2023-04-18T17:50:24.983Z,95.25
2023-04-18T17:52:51.679Z,89.93
2023-04-18T17:55:18.699Z,81.22
2023-04-18T17:57:45.335Z,82.00
2023-04-18T18:00:13.829Z,75.75
2023-04-18T18:02:44.747Z,80.63
2023-04-18T18:05:13.355Z,83.50
2023-04-18T18:07:42.844Z,85.25
2023-04-18T18:10:10.060Z,82.50
2023-04-18T18:12:38.043Z,80.72
2023-04-18T18:15:05.222Z,79.28
2023-04-18T18:17:31.868Z,83.47
2023-04-18T18:19:58.383Z,86.05
2023-04-18T18:22:26.048Z,88.90
2023-04-18T18:24:52.825Z,93.68
2023-04-18T18:27:20.291Z,125.47
2023-04-18T18:29:48.031Z,126.90
2023-04-18T18:32:14.616Z,131.95
2023-04-18T18:34:41.124Z,127.15
2023-04-18T18:39:34.862Z,126.80
2023-04-18T18:42:02.136Z,129.30
2023-04-18T18:49:23.485Z,122.35
2023-04-18T18:54:16.542Z,128.25
2023-04-18T18:56:44.207Z,126.40
2023-04-18T18:59:11.121Z,127.57
2023-04-18T19:01:38.947Z,121.65
2023-04-18T19:04:05.696Z,115.57
2023-04-18T19:06:32.376Z,97.10
2023-04-18T19:08:59.035Z,94.13
2023-04-18T19:11:26.678Z,96.63
2023-04-18T19:13:53.246Z,96.57
2023-04-18T19:16:19.846Z,99.00
2023-04-18T19:18:47.326Z,102.57
2023-04-18T19:21:13.995Z,101.60
2023-04-18T19:23:41.853Z,109.00
2023-04-18T19:26:09.270Z,121.10
2023-04-18T19:28:36.026Z,112.70
2023-04-18T19:31:02.569Z,101.65
2023-04-18T19:33:29.281Z,106.85
2023-04-18T19:35:55.884Z,101.10
2023-04-18T19:38:22.422Z,84.75
2023-04-18T19:40:49.424Z,84.50
2023-04-18T19:43:16.073Z,93.13
2023-04-18T19:45:42.655Z,91.63
2023-04-18T19:48:09.338Z,90.10
2023-04-18T19:50:35.861Z,89.30
2023-04-18T19:53:02.374Z,90.88
2023-04-18T19:55:28.903Z,92.88
2023-04-18T19:57:56.579Z,88.47
2023-04-18T20:00:23.083Z,79.03
2023-04-18T20:02:49.708Z,87.75
2023-04-18T20:05:18.483Z,82.72
2023-04-18T20:07:45.033Z,88.22
2023-04-18T20:10:11.582Z,87.53
2023-04-18T20:12:38.027Z,86.80
2023-04-18T20:15:05.682Z,87.07
2023-04-18T20:17:34.385Z,88.53
2023-04-18T20:20:01.444Z,93.30
2023-04-18T20:22:28.180Z,107.82
2023-04-18T20:27:24.076Z,97.82
2023-04-18T20:29:50.642Z,92.70
2023-04-18T20:32:17.227Z,105.72
2023-04-18T20:34:43.807Z,107.10
2023-04-18T20:39:38.144Z,120.57
2023-04-18T20:42:04.870Z,125.90
2023-04-18T20:44:34.289Z,121.90
2023-04-18T20:47:01.073Z,113.90
2023-04-18T20:49:29.438Z,117.20
2023-04-18T20:51:55.934Z,118.90
2023-04-18T20:54:22.550Z,119.28
2023-04-18T20:56:49.166Z,99.30
2023-04-18T20:59:15.661Z,101.88
2023-04-18T21:01:42.626Z,101.63
2023-04-18T21:04:09.296Z,100.20
2023-04-18T21:06:36.643Z,106.65
2023-04-18T21:11:29.752Z,125.65
2023-04-18T21:13:56.267Z,121.50
2023-04-18T21:16:23.950Z,126.63
2023-04-18T21:18:50.619Z,128.20
2023-04-18T21:21:17.687Z,124.30
2023-04-18T21:23:44.510Z,118.43
2023-04-18T21:26:13.073Z,122.45
2023-04-18T21:29:08.801Z,116.57
2023-04-18T21:31:35.445Z,121.82
2023-04-18T21:34:04.879Z,124.53
2023-04-18T21:36:32.105Z,122.00
2023-04-18T21:39:00.687Z,128.05
2023-04-18T21:41:27.504Z,86.45
2023-04-18T21:43:54.019Z,83.15
2023-04-18T21:46:20.762Z,90.88
2023-04-18T21:48:47.932Z,84.05
2023-04-18T21:51:16.206Z,89.80
2023-04-18T21:53:42.837Z,84.63
2023-04-18T21:56:09.635Z,86.38
2023-04-18T21:58:36.145Z,91.88
2023-04-18T22:01:03.127Z,95.63
2023-04-18T22:03:29.873Z,123.95
2023-04-18T22:05:56.646Z,117.43
2023-04-18T22:08:25.828Z,125.65
2023-04-18T22:10:57.800Z,126.25
2023-04-18T22:13:25.231Z,115.65
2023-04-18T22:18:18.830Z,120.43
2023-04-18T22:20:46.833Z,122.90
2023-04-18T22:23:13.989Z,122.93
2023-04-18T22:25:40.877Z,121.57
2023-04-18T22:28:07.486Z,120.20
2023-04-18T22:30:34.896Z,123.68
2023-04-18T22:33:01.676Z,124.75
2023-04-18T22:35:28.266Z,124.47
2023-04-18T22:37:55.504Z,124.40
2023-04-18T22:40:22.109Z,122.90
2023-04-18T22:42:48.582Z,122.10
2023-04-18T22:45:15.509Z,115.30
2023-04-18T22:47:42.104Z,127.73
2023-04-18T22:50:08.853Z,123.07
2023-04-18T22:52:35.482Z,122.60
2023-04-18T22:55:02.854Z,117.32
2023-04-18T22:57:29.665Z,121.20
2023-04-18T22:59:56.553Z,120.00
2023-04-18T23:02:23.201Z,123.88
2023-04-18T23:04:50.558Z,121.50
2023-04-18T23:09:43.592Z,110.82
2023-04-18T23:12:10.061Z,123.47
2023-04-18T23:14:36.567Z,110.50
2023-04-18T23:17:03.151Z,90.70
2023-04-18T23:19:29.702Z,94.70
2023-04-18T23:21:56.203Z,101.40
2023-04-18T23:24:22.715Z,94.25
2023-04-18T23:26:49.187Z,106.53
2023-04-18T23:29:15.656Z,107.57
2023-04-18T23:34:09.823Z,105.53
2023-04-18T23:36:37.123Z,124.50
2023-04-18T23:39:04.121Z,111.80
2023-04-18T23:41:30.745Z,97.80
2023-04-18T23:46:23.997Z,90.78
2023-04-18T23:48:50.856Z,103.00
2023-04-18T23:51:17.345Z,94.57
2023-04-18T23:53:43.887Z,83.68
2023-04-18T23:56:10.400Z,76.10
2023-04-18T23:58:36.860Z,78.38
